createdAt,value
2023-01-23T00:01:32.210Z,-0.50
2023-01-23T00:04:00.610Z,-0.50
2023-01-23T00:06:27.819Z,-0.50
2023-01-23T00:08:56.966Z,-0.50
2023-01-23T00:11:30.098Z,-0.50
2023-01-23T00:13:58.211Z,-0.50
2023-01-23T00:16:27.442Z,-0.50
2023-01-23T00:18:54.761Z,-0.50
2023-01-23T00:21:24.362Z,-0.50
2023-01-23T00:23:53.800Z,-0.60
2023-01-23T00:26:23.573Z,-0.60
2023-01-23T00:28:50.983Z,-0.50
2023-01-23T00:31:23.099Z,-0.60
2023-01-23T00:33:57.835Z,-0.60
2023-01-23T00:36:27.569Z,-0.60
2023-01-23T00:38:54.343Z,-0.60
2023-01-23T00:41:21.155Z,-0.70
2023-01-23T00:43:48.572Z,-0.60
2023-01-23T00:46:15.509Z,-0.60
2023-01-23T00:48:42.213Z,-0.70
2023-01-23T00:51:08.934Z,-0.70
2023-01-23T00:53:35.827Z,-0.70
2023-01-23T00:56:02.603Z,-0.60
2023-01-23T00:58:29.422Z,-0.60
2023-01-23T01:00:56.213Z,-0.60
2023-01-23T01:03:25.175Z,-0.60
2023-01-23T01:05:52.712Z,-0.60
2023-01-23T01:08:19.411Z,-0.60
2023-01-23T01:10:46.295Z,-0.60
2023-01-23T01:13:13.213Z,-0.60
2023-01-23T01:15:39.931Z,-0.70
2023-01-23T01:18:06.992Z,-0.60
2023-01-23T01:20:33.811Z,-0.60
2023-01-23T01:23:00.595Z,-0.60
2023-01-23T01:25:27.693Z,-0.70
2023-01-23T01:27:56.084Z,-0.60
2023-01-23T01:30:23.261Z,-0.60
2023-01-23T01:32:50.575Z,-0.60
2023-01-23T01:35:17.441Z,-0.60
2023-01-23T01:37:44.396Z,-0.60
2023-01-23T01:40:21.342Z,-0.60
2023-01-23T01:42:56.658Z,-0.60
2023-01-23T01:46:04.807Z,-0.60
2023-01-23T01:48:56.225Z,-0.60
2023-01-23T01:51:35.553Z,-0.60
2023-01-23T01:54:09.156Z,-0.60
2023-01-23T01:56:41.964Z,-0.60
2023-01-23T01:59:10.916Z,-0.60
2023-01-23T02:01:39.240Z,-0.60
2023-01-23T02:04:06.891Z,-0.60
2023-01-23T02:06:33.697Z,-0.60
2023-01-23T02:09:09.962Z,-0.60
2023-01-23T02:11:37.200Z,-0.60
2023-01-23T02:14:04.268Z,-0.60
2023-01-23T02:16:40.228Z,-0.60
2023-01-23T02:19:20.442Z,-0.60
2023-01-23T02:21:49.729Z,-0.60
2023-01-23T02:24:22.542Z,-0.70
2023-01-23T02:26:49.332Z,-0.60
2023-01-23T02:29:19.138Z,-0.60
2023-01-23T02:31:47.063Z,-0.60
2023-01-23T02:34:14.431Z,-0.60
2023-01-23T02:36:46.584Z,-0.60
2023-01-23T02:39:18.721Z,-0.60
2023-01-23T02:41:48.859Z,-0.60
2023-01-23T02:44:33.639Z,-0.60
2023-01-23T02:47:04.068Z,-0.60
2023-01-23T02:49:31.483Z,-0.60
2023-01-23T02:51:58.204Z,-0.60
2023-01-23T02:54:25.611Z,-0.60
2023-01-23T02:56:52.568Z,-0.60
2023-01-23T02:59:37.796Z,-0.60
2023-01-23T03:02:06.233Z,-0.60
2023-01-23T03:04:33.177Z,-0.60
2023-01-23T03:07:00.155Z,-0.60
2023-01-23T03:09:27.509Z,-0.60
2023-01-23T03:11:54.312Z,-0.60
2023-01-23T03:14:23.156Z,-0.60
2023-01-23T03:16:51.617Z,-0.60
2023-01-23T03:19:20.609Z,-0.60
2023-01-23T03:21:47.533Z,-0.60
2023-01-23T03:24:15.539Z,-0.60
2023-01-23T03:26:43.805Z,-0.60
2023-01-23T03:29:43.727Z,-0.70
2023-01-23T03:32:12.930Z,-0.70
2023-01-23T03:34:39.857Z,-0.70
2023-01-23T03:37:07.979Z,-0.60
2023-01-23T03:39:54.005Z,-0.70
2023-01-23T03:42:21.299Z,-0.70
2023-01-23T03:44:48.574Z,-0.60
2023-01-23T03:47:15.357Z,-0.70
2023-01-23T03:49:42.304Z,-0.60
2023-01-23T03:52:09.007Z,-0.60
2023-01-23T03:54:35.853Z,-0.70
2023-01-23T03:57:02.604Z,-0.70
2023-01-23T03:59:29.315Z,-0.70
2023-01-23T04:01:58.035Z,-0.60
2023-01-23T04:04:24.924Z,-0.60
2023-01-23T04:06:51.705Z,-0.70
2023-01-23T04:09:18.558Z,-0.70
2023-01-23T04:11:45.268Z,-0.70
2023-01-23T04:14:12.004Z,-0.60
2023-01-23T04:16:38.703Z,-0.60
2023-01-23T04:19:05.437Z,-0.60
2023-01-23T04:21:32.109Z,-0.60
2023-01-23T04:23:58.854Z,-0.60
2023-01-23T04:26:25.620Z,-0.60
2023-01-23T04:28:52.286Z,-0.60
2023-01-23T04:31:18.991Z,-0.60
2023-01-23T04:33:45.759Z,-0.60
2023-01-23T04:36:12.691Z,-0.60
2023-01-23T04:38:39.738Z,-0.60
2023-01-23T04:41:06.773Z,-0.60
2023-01-23T04:43:33.628Z,-0.60
2023-01-23T04:46:00.427Z,-0.60
2023-01-23T04:48:27.336Z,-0.60
2023-01-23T04:50:54.100Z,-0.70
2023-01-23T04:53:20.988Z,-0.60
2023-01-23T04:55:49.366Z,-0.60
2023-01-23T04:58:17.419Z,-0.60
2023-01-23T05:00:44.137Z,-0.60
2023-01-23T05:03:10.965Z,-0.60
2023-01-23T05:05:37.827Z,-0.60
2023-01-23T05:08:04.957Z,-0.60
2023-01-23T05:10:32.066Z,-0.60
2023-01-23T05:12:58.828Z,-0.60
2023-01-23T05:15:25.640Z,-0.60
2023-01-23T05:17:52.308Z,-0.60
2023-01-23T05:20:20.568Z,-0.60
2023-01-23T05:22:53.231Z,-0.60
2023-01-23T05:25:25.908Z,-0.60
2023-01-23T05:27:53.033Z,-0.60
2023-01-23T05:30:22.516Z,-0.60
2023-01-23T05:32:49.460Z,-0.60
2023-01-23T05:35:16.651Z,-0.60
2023-01-23T05:37:43.531Z,-0.60
2023-01-23T05:40:13.258Z,-0.60
2023-01-23T05:42:40.040Z,-0.60
2023-01-23T05:45:07.249Z,-0.50
2023-01-23T05:47:34.080Z,-0.60
2023-01-23T05:50:01.285Z,-0.60
2023-01-23T05:52:28.058Z,-0.50
2023-01-23T05:54:54.812Z,-0.60
2023-01-23T05:57:21.990Z,-0.60
2023-01-23T05:59:48.945Z,-0.50
2023-01-23T06:02:16.020Z,-0.50
2023-01-23T06:04:42.788Z,-0.60
2023-01-23T06:07:17.614Z,-0.60
2023-01-23T06:09:44.803Z,-0.60
2023-01-23T06:12:11.720Z,-0.50
2023-01-23T06:14:38.894Z,-0.60
2023-01-23T06:17:06.853Z,-0.60
2023-01-23T06:19:33.773Z,-0.60
2023-01-23T06:22:00.524Z,-0.60
2023-01-23T06:24:27.253Z,-0.60
2023-01-23T06:26:53.965Z,-0.60
2023-01-23T06:29:21.060Z,-0.60
2023-01-23T06:31:49.472Z,-0.60
2023-01-23T06:34:16.512Z,-0.60
2023-01-23T06:36:43.646Z,-0.60
2023-01-23T06:39:13.919Z,-0.60
2023-01-23T06:41:41.002Z,-0.60
2023-01-23T06:44:07.971Z,-0.60
2023-01-23T06:46:34.852Z,-0.60
2023-01-23T06:49:01.737Z,-0.60
2023-01-23T06:51:29.050Z,-0.60
2023-01-23T06:53:56.400Z,-0.60
2023-01-23T06:56:23.163Z,-0.60
2023-01-23T06:58:50.128Z,-0.60
2023-01-23T07:01:18.422Z,-0.60
2023-01-23T07:03:45.959Z,-0.60
2023-01-23T07:06:14.052Z,-0.60
2023-01-23T07:08:41.752Z,-0.60
2023-01-23T07:11:09.304Z,-0.60
2023-01-23T07:13:36.291Z,-0.60
2023-01-23T07:16:03.535Z,-0.60
2023-01-23T07:18:30.430Z,-0.60
2023-01-23T07:20:57.442Z,-0.60
2023-01-23T07:23:24.163Z,-0.60
2023-01-23T07:25:51.242Z,-0.60
2023-01-23T07:28:17.933Z,-0.50
2023-01-23T07:30:44.943Z,-0.60
2023-01-23T07:33:12.616Z,-0.50
2023-01-23T07:35:39.877Z,-0.60
2023-01-23T07:38:06.691Z,-0.50
2023-01-23T07:40:33.588Z,-0.50
2023-01-23T07:43:00.307Z,-0.50
2023-01-23T07:45:27.005Z,-0.60
2023-01-23T07:47:53.756Z,-0.50
2023-01-23T07:50:20.819Z,-0.50
2023-01-23T07:52:47.879Z,-0.60
2023-01-23T07:55:14.698Z,-0.60
2023-01-23T07:57:42.469Z,-0.60
2023-01-23T08:00:10.805Z,-0.60
2023-01-23T08:02:38.351Z,-0.60
2023-01-23T08:05:05.538Z,-0.60
2023-01-23T08:07:32.319Z,-0.60
2023-01-23T08:09:59.046Z,-0.60
2023-01-23T08:12:25.855Z,-0.60
2023-01-23T08:14:52.548Z,-0.50
2023-01-23T08:17:19.266Z,-0.50
2023-01-23T08:19:46.060Z,-0.50
2023-01-23T08:22:12.753Z,-0.50
2023-01-23T08:24:39.598Z,-0.50
2023-01-23T08:27:07.416Z,-0.50
2023-01-23T08:29:34.205Z,-0.50
2023-01-23T08:32:01.582Z,-0.50
2023-01-23T08:34:28.311Z,-0.50
2023-01-23T08:36:55.001Z,-0.50
2023-01-23T08:39:21.832Z,-0.40
2023-01-23T08:41:48.675Z,-0.40
2023-01-23T08:44:15.347Z,-0.40
2023-01-23T08:46:43.142Z,-0.30
2023-01-23T08:49:11.312Z,-0.30
2023-01-23T08:51:38.510Z,-0.20
2023-01-23T08:54:06.096Z,-0.30
2023-01-23T08:56:32.784Z,-0.30
2023-01-23T08:58:59.625Z,-0.30
2023-01-23T09:01:27.810Z,-0.20
2023-01-23T09:03:55.041Z,-0.20
2023-01-23T09:06:22.945Z,-0.20
2023-01-23T09:08:50.082Z,-0.20
2023-01-23T09:11:18.566Z,-0.20
2023-01-23T09:13:48.413Z,-0.20
2023-01-23T09:16:15.852Z,-0.30
2023-01-23T09:18:42.902Z,-0.20
2023-01-23T09:21:12.524Z,-0.20
2023-01-23T09:23:39.370Z,-0.20
2023-01-23T09:26:08.873Z,-0.20
2023-01-23T09:28:36.510Z,-0.20
2023-01-23T09:31:07.642Z,-0.10
2023-01-23T09:33:35.597Z,-0.10
2023-01-23T09:36:03.285Z,-0.20
2023-01-23T09:38:30.164Z,-0.10
2023-01-23T09:40:58.667Z,-0.10
2023-01-23T09:43:31.659Z,-0.20
2023-01-23T09:46:10.874Z,-0.10
2023-01-23T09:48:46.343Z,-0.20
2023-01-23T09:51:37.481Z,-0.20
2023-01-23T09:54:44.356Z,-0.20
2023-01-23T09:57:16.471Z,-0.10
2023-01-23T10:00:04.970Z,-0.20
2023-01-23T10:02:31.854Z,-0.20
2023-01-23T10:05:00.140Z,-0.20
2023-01-23T10:08:04.959Z,-0.20
2023-01-23T10:10:44.742Z,-0.20
2023-01-23T10:13:16.630Z,-0.10
2023-01-23T10:15:55.226Z,0.00
2023-01-23T10:18:54.339Z,0.00
2023-01-23T10:21:42.689Z,0.00
2023-01-23T10:24:24.768Z,0.10
2023-01-23T10:26:55.410Z,0.10
2023-01-23T10:29:39.582Z,0.10
2023-01-23T10:32:26.199Z,0.00
2023-01-23T10:35:09.950Z,0.00
2023-01-23T10:38:08.625Z,0.00
2023-01-23T10:40:53.987Z,0.10
2023-01-23T10:43:22.065Z,0.10
2023-01-23T10:45:49.828Z,0.10
2023-01-23T10:48:36.445Z,0.10
2023-01-23T10:51:04.276Z,0.10
2023-01-23T10:53:31.082Z,0.20
2023-01-23T10:56:00.768Z,0.10
2023-01-23T10:58:55.733Z,0.10
2023-01-23T11:01:27.608Z,0.00
2023-01-23T11:03:54.461Z,0.10
2023-01-23T11:06:25.966Z,0.20
2023-01-23T11:08:58.677Z,0.10
2023-01-23T11:11:30.792Z,0.10
2023-01-23T11:14:22.697Z,0.10
2023-01-23T11:17:04.688Z,0.20
2023-01-23T11:19:33.491Z,0.20
2023-01-23T11:22:04.696Z,0.20
2023-01-23T11:24:41.155Z,0.30
2023-01-23T11:27:23.584Z,0.20
2023-01-23T11:30:08.701Z,0.20
2023-01-23T11:32:47.476Z,0.20
2023-01-23T11:35:18.100Z,0.20
2023-01-23T11:37:44.761Z,0.20
2023-01-23T11:40:18.653Z,0.20
2023-01-23T11:42:46.258Z,0.20
2023-01-23T11:45:43.731Z,0.20
2023-01-23T11:48:43.012Z,0.20
2023-01-23T11:51:18.589Z,0.20
2023-01-23T11:54:31.104Z,0.20
2023-01-23T11:57:16.362Z,0.20
2023-01-23T11:59:58.512Z,0.20
2023-01-23T12:02:39.897Z,0.20
2023-01-23T12:05:24.927Z,0.20
2023-01-23T12:08:12.775Z,0.20
2023-01-23T12:10:49.792Z,0.20
2023-01-23T12:13:44.480Z,0.30
2023-01-23T12:16:32.326Z,0.30
2023-01-23T12:19:16.053Z,0.30
2023-01-23T12:21:56.823Z,0.30
2023-01-23T12:24:51.999Z,0.40
2023-01-23T12:27:45.261Z,0.40
2023-01-23T12:30:44.589Z,0.40
2023-01-23T12:33:49.848Z,0.40
2023-01-23T12:36:28.836Z,0.50
2023-01-23T12:39:21.407Z,0.50
2023-01-23T12:41:59.337Z,0.60
2023-01-23T12:44:56.843Z,0.70
2023-01-23T12:47:31.774Z,0.70
2023-01-23T12:50:07.704Z,0.70
2023-01-23T12:52:56.530Z,0.70
2023-01-23T12:55:30.662Z,0.70
2023-01-23T12:58:08.158Z,0.80
2023-01-23T13:00:57.943Z,0.80
2023-01-23T13:03:48.980Z,0.80
2023-01-23T13:06:47.579Z,0.80
2023-01-23T13:09:38.722Z,0.90
2023-01-23T13:12:23.030Z,0.80
2023-01-23T13:15:34.311Z,0.80
2023-01-23T13:17:48.000Z,0.80
2023-01-23T13:20:41.853Z,0.70
2023-01-23T13:23:25.882Z,0.70
2023-01-23T13:26:19.482Z,0.70
2023-01-23T13:28:57.376Z,0.70
2023-01-23T13:31:26.227Z,0.70
2023-01-23T13:33:58.824Z,0.70
2023-01-23T13:36:31.213Z,0.70
2023-01-23T13:39:02.372Z,0.80
2023-01-23T13:41:31.414Z,0.80
2023-01-23T13:44:24.778Z,0.80
2023-01-23T14:21:41.927Z,0.90
2023-01-23T14:24:25.171Z,0.80
2023-01-23T14:27:02.420Z,0.90
2023-01-23T14:29:31.373Z,0.80
2023-01-23T14:31:58.273Z,0.90
2023-01-23T14:34:26.868Z,0.90
2023-01-23T14:37:04.390Z,0.90
2023-01-23T14:39:34.244Z,0.90
2023-01-23T14:42:03.347Z,0.90
2023-01-23T14:44:43.615Z,0.90
2023-01-23T14:47:23.633Z,0.90
2023-01-23T14:49:50.812Z,0.90
2023-01-23T14:52:29.603Z,0.90
2023-01-23T14:55:01.196Z,0.90
2023-01-23T14:57:35.199Z,0.90
2023-01-23T15:00:03.596Z,1.00
2023-01-23T15:02:33.445Z,0.90
2023-01-23T15:05:12.032Z,0.90
2023-01-23T15:07:47.044Z,1.00
2023-01-23T15:10:43.081Z,1.00
2023-01-23T15:13:22.347Z,1.00
2023-01-23T15:16:03.981Z,0.90
2023-01-23T15:18:34.920Z,1.00
2023-01-23T15:21:04.779Z,0.90
2023-01-23T15:23:41.028Z,1.00
2023-01-23T15:26:25.475Z,0.90
2023-01-23T15:28:55.493Z,1.00
2023-01-23T15:31:35.847Z,0.90
2023-01-23T15:34:14.966Z,0.90
2023-01-23T15:37:11.376Z,0.90
2023-01-23T15:39:59.747Z,0.90
2023-01-23T15:42:34.363Z,0.90
2023-01-23T15:45:02.473Z,1.10
2023-01-23T15:47:30.599Z,1.00
2023-01-23T15:50:01.761Z,1.00
2023-01-23T15:52:45.485Z,1.00
2023-01-23T15:55:13.497Z,1.00
2023-01-23T15:57:41.932Z,1.00
2023-01-23T16:00:26.032Z,1.00
2023-01-23T16:02:57.057Z,1.00
2023-01-23T16:05:27.202Z,1.00
2023-01-23T16:07:55.127Z,1.00
2023-01-23T16:10:26.262Z,1.00
2023-01-23T16:12:55.419Z,1.00
2023-01-23T16:15:30.677Z,1.00
2023-01-23T16:17:57.653Z,1.00
2023-01-23T16:20:32.521Z,1.00
2023-01-23T16:23:14.084Z,0.90
2023-01-23T16:25:44.833Z,0.90
2023-01-23T16:28:24.104Z,0.90
2023-01-23T16:30:52.051Z,0.90
2023-01-23T16:33:20.343Z,0.80
2023-01-23T16:35:48.710Z,1.00
2023-01-23T16:38:24.184Z,0.90
2023-01-23T16:40:53.304Z,0.90
2023-01-23T16:43:21.461Z,0.90
2023-01-23T16:45:48.311Z,0.80
2023-01-23T16:48:25.337Z,0.90
2023-01-23T16:50:59.153Z,0.80
2023-01-23T16:53:31.349Z,0.80
2023-01-23T16:56:00.520Z,0.90
2023-01-23T16:58:31.286Z,0.90
2023-01-23T17:01:03.779Z,0.80
2023-01-23T17:03:34.525Z,0.90
2023-01-23T17:06:01.460Z,0.80
2023-01-23T17:08:28.268Z,0.90
2023-01-23T17:10:59.917Z,0.80
2023-01-23T17:13:27.664Z,0.90
2023-01-23T17:15:56.222Z,0.90
2023-01-23T17:18:28.654Z,0.90
2023-01-23T17:20:55.931Z,0.90
2023-01-23T17:23:24.265Z,0.80
2023-01-23T17:26:00.457Z,0.90
2023-01-23T17:28:28.418Z,0.80
2023-01-23T17:30:56.009Z,0.90
2023-01-23T17:33:26.269Z,0.80
2023-01-23T17:35:54.246Z,0.80
2023-01-23T17:38:26.643Z,0.80
2023-01-23T17:40:53.699Z,0.90
2023-01-23T17:43:21.666Z,0.90
2023-01-23T17:45:50.985Z,0.90
2023-01-23T17:48:25.795Z,0.80
2023-01-23T17:50:52.631Z,0.90
2023-01-23T17:53:19.485Z,0.90
2023-01-23T17:55:49.413Z,0.90
2023-01-23T17:58:16.154Z,0.90
2023-01-23T18:00:44.620Z,0.90
2023-01-23T18:03:17.462Z,0.90
2023-01-23T18:05:44.317Z,0.90
2023-01-23T18:08:15.268Z,0.90
2023-01-23T18:10:44.993Z,0.90
2023-01-23T18:13:20.546Z,0.80
2023-01-23T18:16:08.562Z,0.90
2023-01-23T18:18:37.521Z,0.90
2023-01-23T18:21:05.920Z,0.80
2023-01-23T18:23:37.090Z,0.90
2023-01-23T18:26:26.618Z,0.90
2023-01-23T18:29:06.104Z,0.90
2023-01-23T18:32:01.739Z,0.90
2023-01-23T18:34:37.242Z,0.90
2023-01-23T18:37:23.852Z,0.80
2023-01-23T18:39:58.672Z,0.90
2023-01-23T18:42:55.589Z,0.90
2023-01-23T18:45:27.297Z,0.90
2023-01-23T18:47:54.672Z,0.90
2023-01-23T18:50:25.297Z,0.90
2023-01-23T18:53:14.060Z,0.90
2023-01-23T18:56:10.297Z,0.90
2023-01-23T18:59:09.833Z,0.90
2023-01-23T19:01:42.795Z,0.90
2023-01-23T19:04:14.579Z,0.90
2023-01-23T19:06:42.017Z,0.90
2023-01-23T19:09:19.375Z,0.90
2023-01-23T19:12:00.007Z,0.90
2023-01-23T19:14:48.504Z,0.90
2023-01-23T19:17:42.560Z,1.00
2023-01-23T19:20:15.311Z,0.90
2023-01-23T19:22:57.078Z,0.90
2023-01-23T19:25:24.338Z,0.90
2023-01-23T19:27:52.588Z,0.90
2023-01-23T19:30:23.616Z,0.90
2023-01-23T19:32:50.455Z,0.90
2023-01-23T19:35:19.497Z,0.90
2023-01-23T19:37:46.374Z,1.00
2023-01-23T19:40:15.760Z,1.00
2023-01-23T19:42:54.209Z,1.00
2023-01-23T19:45:25.397Z,0.90
2023-01-23T19:47:53.426Z,1.00
2023-01-23T19:50:20.940Z,1.00
2023-01-23T19:52:50.140Z,1.00
2023-01-23T19:55:29.336Z,1.00
2023-01-23T19:57:56.480Z,1.00
2023-01-23T20:00:25.206Z,1.00
2023-01-23T20:02:53.438Z,1.00
2023-01-23T20:05:20.952Z,1.00
2023-01-23T20:07:49.405Z,1.00
2023-01-23T20:10:16.822Z,1.00
2023-01-23T20:12:45.965Z,1.00
2023-01-23T20:15:14.876Z,1.00
2023-01-23T20:17:42.602Z,0.90
2023-01-23T20:20:11.349Z,1.00
2023-01-23T20:22:39.120Z,1.00
2023-01-23T20:25:13.769Z,1.00
2023-01-23T20:27:41.493Z,1.00
2023-01-23T20:30:17.611Z,1.00
2023-01-23T20:32:44.706Z,1.00
2023-01-23T20:35:11.830Z,0.90
2023-01-23T20:37:38.700Z,1.00
2023-01-23T20:40:08.809Z,1.00
2023-01-23T20:42:35.768Z,1.00
2023-01-23T20:45:02.527Z,1.00
2023-01-23T20:47:29.296Z,1.00
2023-01-23T20:49:56.000Z,1.00
2023-01-23T20:52:41.313Z,1.00
2023-01-23T20:55:08.465Z,1.00
2023-01-23T20:57:53.929Z,1.10
2023-01-23T21:00:21.013Z,1.00
2023-01-23T21:02:47.975Z,1.10
2023-01-23T21:05:14.728Z,1.00
2023-01-23T21:07:41.514Z,1.10
2023-01-23T21:10:08.768Z,1.10
2023-01-23T21:12:35.782Z,1.10
2023-01-23T21:15:02.715Z,1.10
2023-01-23T21:17:29.474Z,1.10
2023-01-23T21:19:56.253Z,1.10
2023-01-23T21:22:22.976Z,1.10
2023-01-23T21:24:49.810Z,1.10
2023-01-23T21:27:17.032Z,1.10
2023-01-23T21:29:43.938Z,1.10
2023-01-23T21:32:10.646Z,1.20
2023-01-23T21:34:37.559Z,1.20
2023-01-23T21:37:07.182Z,1.10
2023-01-23T21:39:33.935Z,1.20
2023-01-23T21:42:00.704Z,1.20
2023-01-23T21:44:27.481Z,1.20
2023-01-23T21:46:54.448Z,1.20
2023-01-23T21:49:21.337Z,1.20
2023-01-23T21:51:48.193Z,1.20
2023-01-23T21:54:15.067Z,1.20
2023-01-23T21:56:41.957Z,1.20
2023-01-23T21:59:08.865Z,1.20
2023-01-23T22:01:36.144Z,1.20
2023-01-23T22:04:04.472Z,1.20
2023-01-23T22:06:32.507Z,1.20
2023-01-23T22:08:59.767Z,1.20
2023-01-23T22:11:26.781Z,1.20
2023-01-23T22:13:53.842Z,1.20
2023-01-23T22:16:25.312Z,1.30
2023-01-23T22:18:55.189Z,1.20
2023-01-23T22:21:21.950Z,1.20
2023-01-23T22:23:48.864Z,1.20
2023-01-23T22:26:15.587Z,1.20
2023-01-23T22:28:42.369Z,1.20
2023-01-23T22:31:14.738Z,1.20
2023-01-23T22:33:44.132Z,1.20
2023-01-23T22:36:14.842Z,1.20
2023-01-23T22:38:41.864Z,1.20
2023-01-23T22:41:14.113Z,1.20
2023-01-23T22:43:41.046Z,1.20
2023-01-23T22:46:10.076Z,1.20
2023-01-23T22:48:37.114Z,1.20
2023-01-23T22:51:05.758Z,1.20
2023-01-23T22:53:32.887Z,1.20
2023-01-23T22:56:03.674Z,1.10
2023-01-23T22:58:30.445Z,1.20
2023-01-23T23:00:57.258Z,1.20
2023-01-23T23:03:24.070Z,1.20
2023-01-23T23:05:59.438Z,1.20
2023-01-23T23:08:27.304Z,1.10
2023-01-23T23:11:19.626Z,1.20
2023-01-23T23:13:46.791Z,1.20
2023-01-23T23:16:17.814Z,1.20
2023-01-23T23:18:46.497Z,1.20
2023-01-23T23:21:15.267Z,1.10
2023-01-23T23:23:42.528Z,1.20
2023-01-23T23:26:10.367Z,1.20
2023-01-23T23:28:38.516Z,1.10
2023-01-23T23:31:06.592Z,1.20
2023-01-23T23:33:33.688Z,1.20
2023-01-23T23:36:00.447Z,1.10
2023-01-23T23:38:27.568Z,1.20
2023-01-23T23:40:59.445Z,1.20
2023-01-23T23:43:26.848Z,1.10
2023-01-23T23:45:55.939Z,1.20
2023-01-23T23:48:22.979Z,1.20
2023-01-23T23:50:49.878Z,1.10
2023-01-23T23:53:17.241Z,1.10
2023-01-23T23:55:44.291Z,1.10
2023-01-23T23:58:11.774Z,1.10
